Terminal Aerodrome Forecast
Issued by NWS Wilmington, OH

Current Version | Previous Version | Graphics & Text | Print | Product List | Glossary On
Versions: 1 2 3 4 5 6 7 8 9 10 11 12 13 14 15 16 17 18 19 20 21
586
FTUS41 KILN 210520
TAFDAY
TAF
KDAY 210520Z 2106/2206 05005KT P6SM VCSH BKN200
     FM211000 08006KT 5SM BR BKN015
     FM211400 12006KT P6SM VCSH SCT040 BKN200
     FM211800 13008KT P6SM VCTS BKN040CB
     FM220100 18005KT P6SM SCT100=

USA.gov is the U.S. government's official web portal to all federal, state and local government web resources and services.